Strona główna
METAR-TAF:

METAR-TAF

Lotnisko :

Port lotniczy Bratysława

Bratysława, Słowacja

Szerokość geograficzna: 48-12N, Długość geograficzna: 017-12E, wysokość: 133 m

Aktualna obserwacja pogody

Raport powstał 31 minut temu, godzina 09:30 UTC
Wiatr 4 kt od południowy zachód, zmienny między południe i zachód
Temperatura 28°C
Wilgotność 45%
Ciśnienie 1019 hPa
Widzialność 10 km lub więcej
Mało chmury na wysokości 4600 ft

METAR: LZIB 180930Z 22004KT 170V280 9999 FEW046 28/15 Q1019 NOSIG

czas: 12:01 (10:01 UTC)

Prognoza

Raport powstał 5 godziny i 1 minut temu, godzina 05:00 UTC
Prognoza ważna od 18 godzina 06 UTC do 19 godzina 06 UTC
Wiatr 4 kt od północno-północny wschód
Widzialność 10 km lub więcej
Brak chmur poniżej 1500 m i brak chmur cumulonimbus
Przejściowo
od 18 godzina 09 UTC do 18 godzina 12 UTC
Wiatr 6 kt od południowy wschód
Przejściowo
od 18 godzina 12 UTC do 18 godzina 18 UTC
Wiatr 8 kt od zachód

TAF: LZIB 180500Z 1806/1906 03004KT CAVOK TEMPO 1809/1812 13006KT TEMPO 1812/1818 28008KT

Obserwacja i prognoza pogody dla ponad 4000 lotnisk (raport METAR i TAF).

Dostępne stacje oznaczono żółtymi i czerwonymi punktami na mapie.

Najedź kursorem aby zobaczyć nazwę stacji.

Kliknij aby zobaczyć obserwacje i prognozy pogody.

Aby zmienić mapę: kliknij na zielony przycisk z czarnym krzyżykiem, aby powiększyć; na zielony przycisk z myślnikiem, aby pomniejszyć; na zielone strzałki, aby przejść do map sąsiednich.


METAR-TAF: